sensor_id;sensor_type;location;lat;lon;timestamp;P1;durP1;ratioP1;P2;durP2;ratioP2
6531;SDS011;3299;42.004;24.868;2022-07-11T00:02:02;1.42;;;1.42;;
6531;SDS011;3299;42.004;24.868;2022-07-11T00:04:29;3.03;;;1.42;;
6531;SDS011;3299;42.004;24.868;2022-07-11T00:06:55;2.28;;;1.38;;
6531;SDS011;3299;42.004;24.868;2022-07-11T00:09:21;1.30;;;1.20;;
6531;SDS011;3299;42.004;24.868;2022-07-11T00:11:46;1.50;;;1.40;;
6531;SDS011;3299;42.004;24.868;2022-07-11T00:14:12;1.10;;;1.10;;
6531;SDS011;3299;42.004;24.868;2022-07-11T00:16:37;2.17;;;1.40;;
6531;SDS011;3299;42.004;24.868;2022-07-11T00:19:03;1.45;;;1.35;;
6531;SDS011;3299;42.004;24.868;2022-07-11T00:21:30;1.50;;;1.40;;
6531;SDS011;3299;42.004;24.868;2022-07-11T00:23:55;1.52;;;1.42;;
6531;SDS011;3299;42.004;24.868;2022-07-11T00:26:22;1.30;;;1.30;;
6531;SDS011;3299;42.004;24.868;2022-07-11T00:28:47;1.40;;;1.20;;
6531;SDS011;3299;42.004;24.868;2022-07-11T00:31:12;2.80;;;1.17;;
6531;SDS011;3299;42.004;24.868;2022-07-11T00:33:38;1.60;;;1.50;;
6531;SDS011;3299;42.004;24.868;2022-07-11T00:36:03;2.70;;;1.25;;
6531;SDS011;3299;42.004;24.868;2022-07-11T00:38:29;2.45;;;1.30;;
6531;SDS011;3299;42.004;24.868;2022-07-11T00:40:55;1.30;;;1.30;;
6531;SDS011;3299;42.004;24.868;2022-07-11T00:43:29;2.63;;;1.33;;
6531;SDS011;3299;42.004;24.868;2022-07-11T00:45:58;2.75;;;1.48;;
6531;SDS011;3299;42.004;24.868;2022-07-11T00:48:24;1.33;;;1.23;;
6531;SDS011;3299;42.004;24.868;2022-07-11T00:50:50;1.30;;;1.30;;
6531;SDS011;3299;42.004;24.868;2022-07-11T00:53:15;1.30;;;1.20;;
6531;SDS011;3299;42.004;24.868;2022-07-11T00:55:42;4.57;;;1.55;;
6531;SDS011;3299;42.004;24.868;2022-07-11T00:58:07;1.58;;;1.48;;
6531;SDS011;3299;42.004;24.868;2022-07-11T01:00:33;2.05;;;1.20;;
6531;SDS011;3299;42.004;24.868;2022-07-11T01:02:58;1.88;;;1.13;;
6531;SDS011;3299;42.004;24.868;2022-07-11T01:05:24;1.73;;;1.60;;
6531;SDS011;3299;42.004;24.868;2022-07-11T01:07:50;1.75;;;1.40;;
6531;SDS011;3299;42.004;24.868;2022-07-11T01:10:15;1.30;;;1.20;;
6531;SDS011;3299;42.004;24.868;2022-07-11T01:12:41;1.75;;;1.60;;
6531;SDS011;3299;42.004;24.868;2022-07-11T01:15:07;1.60;;;1.30;;
6531;SDS011;3299;42.004;24.868;2022-07-11T01:17:33;1.60;;;1.50;;
6531;SDS011;3299;42.004;24.868;2022-07-11T01:19:58;2.10;;;1.40;;
6531;SDS011;3299;42.004;24.868;2022-07-11T01:22:25;1.25;;;1.20;;
6531;SDS011;3299;42.004;24.868;2022-07-11T01:24:53;1.52;;;1.42;;
6531;SDS011;3299;42.004;24.868;2022-07-11T01:27:19;1.63;;;1.40;;
6531;SDS011;3299;42.004;24.868;2022-07-11T01:29:44;3.03;;;1.35;;
6531;SDS011;3299;42.004;24.868;2022-07-11T01:32:10;2.25;;;1.40;;
6531;SDS011;3299;42.004;24.868;2022-07-11T01:34:35;1.40;;;1.25;;
6531;SDS011;3299;42.004;24.868;2022-07-11T01:37:01;1.60;;;1.50;;
6531;SDS011;3299;42.004;24.868;2022-07-11T01:39:26;1.60;;;1.50;;
6531;SDS011;3299;42.004;24.868;2022-07-11T01:41:58;1.17;;;1.15;;
6531;SDS011;3299;42.004;24.868;2022-07-11T01:44:23;3.33;;;1.50;;
6531;SDS011;3299;42.004;24.868;2022-07-11T01:46:49;1.85;;;1.40;;
6531;SDS011;3299;42.004;24.868;2022-07-11T01:49:15;1.38;;;1.27;;
6531;SDS011;3299;42.004;24.868;2022-07-11T01:51:40;1.20;;;1.10;;
6531;SDS011;3299;42.004;24.868;2022-07-11T01:54:06;3.72;;;1.30;;
6531;SDS011;3299;42.004;24.868;2022-07-11T01:56:32;4.72;;;1.30;;
6531;SDS011;3299;42.004;24.868;2022-07-11T01:58:58;1.20;;;1.10;;
6531;SDS011;3299;42.004;24.868;2022-07-11T02:01:24;3.05;;;1.48;;
6531;SDS011;3299;42.004;24.868;2022-07-11T02:03:50;1.23;;;1.13;;
6531;SDS011;3299;42.004;24.868;2022-07-11T02:06:15;1.17;;;1.17;;
6531;SDS011;3299;42.004;24.868;2022-07-11T02:08:41;1.10;;;1.10;;
6531;SDS011;3299;42.004;24.868;2022-07-11T02:11:06;3.22;;;1.42;;
6531;SDS011;3299;42.004;24.868;2022-07-11T02:13:32;3.20;;;1.48;;
6531;SDS011;3299;42.004;24.868;2022-07-11T02:15:58;4.63;;;1.35;;
6531;SDS011;3299;42.004;24.868;2022-07-11T02:18:23;2.40;;;1.40;;
6531;SDS011;3299;42.004;24.868;2022-07-11T02:20:49;1.92;;;1.08;;
6531;SDS011;3299;42.004;24.868;2022-07-11T02:23:15;1.67;;;1.13;;
6531;SDS011;3299;42.004;24.868;2022-07-11T02:25:41;1.60;;;1.30;;
6531;SDS011;3299;42.004;24.868;2022-07-11T02:28:07;1.42;;;1.35;;
6531;SDS011;3299;42.004;24.868;2022-07-11T02:30:34;1.65;;;1.52;;
6531;SDS011;3299;42.004;24.868;2022-07-11T02:33:00;2.97;;;1.38;;
6531;SDS011;3299;42.004;24.868;2022-07-11T02:35:25;4.53;;;1.50;;
6531;SDS011;3299;42.004;24.868;2022-07-11T02:37:51;1.40;;;1.40;;
6531;SDS011;3299;42.004;24.868;2022-07-11T02:40:16;1.60;;;1.50;;
6531;SDS011;3299;42.004;24.868;2022-07-11T02:42:42;1.52;;;1.42;;
6531;SDS011;3299;42.004;24.868;2022-07-11T02:45:08;1.30;;;1.30;;
6531;SDS011;3299;42.004;24.868;2022-07-11T02:47:37;2.35;;;1.60;;
6531;SDS011;3299;42.004;24.868;2022-07-11T02:50:07;1.75;;;1.65;;
6531;SDS011;3299;42.004;24.868;2022-07-11T02:52:34;3.33;;;2.45;;
6531;SDS011;3299;42.004;24.868;2022-07-11T02:55:01;2.92;;;1.60;;
6531;SDS011;3299;42.004;24.868;2022-07-11T02:57:27;1.63;;;1.52;;
6531;SDS011;3299;42.004;24.868;2022-07-11T02:59:52;1.75;;;1.65;;
6531;SDS011;3299;42.004;24.868;2022-07-11T03:02:17;1.52;;;1.27;;
6531;SDS011;3299;42.004;24.868;2022-07-11T03:04:43;1.02;;;1.02;;
6531;SDS011;3299;42.004;24.868;2022-07-11T03:07:08;1.65;;;1.55;;
6531;SDS011;3299;42.004;24.868;2022-07-11T03:09:34;2.60;;;1.15;;
6531;SDS011;3299;42.004;24.868;2022-07-11T03:11:59;1.58;;;1.48;;
6531;SDS011;3299;42.004;24.868;2022-07-11T03:14:24;1.17;;;1.17;;
6531;SDS011;3299;42.004;24.868;2022-07-11T03:16:50;1.10;;;1.10;;
6531;SDS011;3299;42.004;24.868;2022-07-11T03:19:15;2.15;;;1.30;;
6531;SDS011;3299;42.004;24.868;2022-07-11T03:21:41;1.45;;;1.35;;
6531;SDS011;3299;42.004;24.868;2022-07-11T03:24:06;2.30;;;1.40;;
6531;SDS011;3299;42.004;24.868;2022-07-11T03:26:32;1.73;;;1.45;;
6531;SDS011;3299;42.004;24.868;2022-07-11T03:28:57;2.45;;;1.48;;
6531;SDS011;3299;42.004;24.868;2022-07-11T03:31:22;0.98;;;0.98;;
6531;SDS011;3299;42.004;24.868;2022-07-11T03:33:48;1.10;;;1.10;;
6531;SDS011;3299;42.004;24.868;2022-07-11T03:36:13;1.40;;;1.30;;
6531;SDS011;3299;42.004;24.868;2022-07-11T03:38:39;1.20;;;1.20;;
6531;SDS011;3299;42.004;24.868;2022-07-11T03:41:04;3.33;;;1.00;;
6531;SDS011;3299;42.004;24.868;2022-07-11T03:43:30;1.25;;;1.15;;
6531;SDS011;3299;42.004;24.868;2022-07-11T03:45:56;3.80;;;1.92;;
6531;SDS011;3299;42.004;24.868;2022-07-11T03:48:21;4.22;;;1.55;;
6531;SDS011;3299;42.004;24.868;2022-07-11T03:50:47;2.25;;;1.40;;
6531;SDS011;3299;42.004;24.868;2022-07-11T03:53:13;1.13;;;1.13;;
6531;SDS011;3299;42.004;24.868;2022-07-11T03:55:38;2.13;;;1.20;;
6531;SDS011;3299;42.004;24.868;2022-07-11T03:58:04;1.63;;;1.52;;
6531;SDS011;3299;42.004;24.868;2022-07-11T04:00:30;4.22;;;1.33;;
6531;SDS011;3299;42.004;24.868;2022-07-11T04:02:56;2.85;;;1.08;;
6531;SDS011;3299;42.004;24.868;2022-07-11T04:05:22;1.38;;;1.30;;
6531;SDS011;3299;42.004;24.868;2022-07-11T04:07:48;3.10;;;1.00;;
6531;SDS011;3299;42.004;24.868;2022-07-11T04:10:13;2.33;;;1.42;;
6531;SDS011;3299;42.004;24.868;2022-07-11T04:12:39;1.88;;;1.65;;
6531;SDS011;3299;42.004;24.868;2022-07-11T04:15:04;1.95;;;1.60;;
6531;SDS011;3299;42.004;24.868;2022-07-11T04:17:31;1.50;;;1.40;;
6531;SDS011;3299;42.004;24.868;2022-07-11T04:19:57;2.47;;;1.13;;
6531;SDS011;3299;42.004;24.868;2022-07-11T04:22:22;1.23;;;1.13;;
6531;SDS011;3299;42.004;24.868;2022-07-11T04:24:49;1.92;;;1.10;;
6531;SDS011;3299;42.004;24.868;2022-07-11T04:27:14;2.95;;;1.20;;
6531;SDS011;3299;42.004;24.868;2022-07-11T04:29:39;7.28;;;2.42;;
6531;SDS011;3299;42.004;24.868;2022-07-11T04:32:05;1.02;;;1.02;;
6531;SDS011;3299;42.004;24.868;2022-07-11T04:34:31;2.35;;;1.30;;
6531;SDS011;3299;42.004;24.868;2022-07-11T04:36:56;0.77;;;0.77;;
6531;SDS011;3299;42.004;24.868;2022-07-11T04:39:22;1.45;;;1.15;;
6531;SDS011;3299;42.004;24.868;2022-07-11T04:41:47;1.67;;;0.93;;
6531;SDS011;3299;42.004;24.868;2022-07-11T04:44:13;2.28;;;1.02;;
6531;SDS011;3299;42.004;24.868;2022-07-11T04:46:38;1.58;;;0.98;;
6531;SDS011;3299;42.004;24.868;2022-07-11T04:49:04;2.75;;;0.80;;
6531;SDS011;3299;42.004;24.868;2022-07-11T04:51:29;2.65;;;1.02;;
6531;SDS011;3299;42.004;24.868;2022-07-11T04:53:55;1.48;;;1.00;;
6531;SDS011;3299;42.004;24.868;2022-07-11T04:56:20;1.73;;;1.05;;
6531;SDS011;3299;42.004;24.868;2022-07-11T04:58:46;1.33;;;1.00;;
6531;SDS011;3299;42.004;24.868;2022-07-11T05:01:11;1.98;;;1.10;;
6531;SDS011;3299;42.004;24.868;2022-07-11T05:03:37;1.10;;;0.93;;
6531;SDS011;3299;42.004;24.868;2022-07-11T05:06:03;2.08;;;1.30;;
6531;SDS011;3299;42.004;24.868;2022-07-11T05:08:29;0.90;;;0.90;;
6531;SDS011;3299;42.004;24.868;2022-07-11T05:10:55;1.30;;;1.20;;
6531;SDS011;3299;42.004;24.868;2022-07-11T05:13:20;1.40;;;0.88;;
6531;SDS011;3299;42.004;24.868;2022-07-11T05:15:46;0.90;;;0.90;;
6531;SDS011;3299;42.004;24.868;2022-07-11T05:18:11;1.20;;;1.10;;
6531;SDS011;3299;42.004;24.868;2022-07-11T05:20:37;1.38;;;0.80;;
6531;SDS011;3299;42.004;24.868;2022-07-11T05:23:02;2.92;;;1.20;;
6531;SDS011;3299;42.004;24.868;2022-07-11T05:25:28;1.23;;;1.00;;
6531;SDS011;3299;42.004;24.868;2022-07-11T05:27:53;1.25;;;1.00;;
6531;SDS011;3299;42.004;24.868;2022-07-11T05:30:18;0.98;;;0.80;;
6531;SDS011;3299;42.004;24.868;2022-07-11T05:32:44;3.53;;;1.10;;
6531;SDS011;3299;42.004;24.868;2022-07-11T05:35:10;1.35;;;0.90;;
6531;SDS011;3299;42.004;24.868;2022-07-11T05:37:35;1.10;;;1.05;;
6531;SDS011;3299;42.004;24.868;2022-07-11T05:40:01;1.55;;;1.20;;
6531;SDS011;3299;42.004;24.868;2022-07-11T05:42:26;1.42;;;1.00;;
6531;SDS011;3299;42.004;24.868;2022-07-11T05:44:52;1.83;;;1.05;;
6531;SDS011;3299;42.004;24.868;2022-07-11T05:47:18;1.67;;;0.95;;
6531;SDS011;3299;42.004;24.868;2022-07-11T05:49:43;0.90;;;0.90;;
6531;SDS011;3299;42.004;24.868;2022-07-11T05:52:08;1.35;;;1.25;;
6531;SDS011;3299;42.004;24.868;2022-07-11T05:54:34;0.85;;;0.85;;
6531;SDS011;3299;42.004;24.868;2022-07-11T05:57:00;2.15;;;1.00;;
6531;SDS011;3299;42.004;24.868;2022-07-11T05:59:29;1.42;;;1.05;;
6531;SDS011;3299;42.004;24.868;2022-07-11T06:01:54;0.98;;;0.98;;
6531;SDS011;3299;42.004;24.868;2022-07-11T06:04:20;1.02;;;0.93;;
6531;SDS011;3299;42.004;24.868;2022-07-11T06:06:46;2.05;;;1.30;;
6531;SDS011;3299;42.004;24.868;2022-07-11T06:09:11;2.42;;;1.17;;
6531;SDS011;3299;42.004;24.868;2022-07-11T06:11:37;1.50;;;0.93;;
6531;SDS011;3299;42.004;24.868;2022-07-11T06:14:03;2.67;;;0.90;;
6531;SDS011;3299;42.004;24.868;2022-07-11T06:16:30;1.02;;;0.85;;
6531;SDS011;3299;42.004;24.868;2022-07-11T06:18:56;0.80;;;0.80;;
6531;SDS011;3299;42.004;24.868;2022-07-11T06:21:22;1.17;;;1.10;;
6531;SDS011;3299;42.004;24.868;2022-07-11T06:23:48;3.38;;;0.85;;
6531;SDS011;3299;42.004;24.868;2022-07-11T06:26:13;1.45;;;0.75;;
6531;SDS011;3299;42.004;24.868;2022-07-11T06:28:40;2.03;;;0.80;;
6531;SDS011;3299;42.004;24.868;2022-07-11T06:31:06;2.92;;;1.30;;
6531;SDS011;3299;42.004;24.868;2022-07-11T06:33:32;0.98;;;0.90;;
6531;SDS011;3299;42.004;24.868;2022-07-11T06:35:59;2.30;;;0.93;;
6531;SDS011;3299;42.004;24.868;2022-07-11T06:38:24;1.00;;;1.00;;
6531;SDS011;3299;42.004;24.868;2022-07-11T06:40:49;0.98;;;0.98;;
6531;SDS011;3299;42.004;24.868;2022-07-11T06:43:15;2.47;;;1.10;;
6531;SDS011;3299;42.004;24.868;2022-07-11T06:45:41;2.45;;;0.90;;
6531;SDS011;3299;42.004;24.868;2022-07-11T06:48:06;1.75;;;0.93;;
6531;SDS011;3299;42.004;24.868;2022-07-11T06:50:32;2.25;;;1.20;;
6531;SDS011;3299;42.004;24.868;2022-07-11T06:52:58;1.17;;;0.98;;
6531;SDS011;3299;42.004;24.868;2022-07-11T06:55:24;1.02;;;1.02;;
6531;SDS011;3299;42.004;24.868;2022-07-11T06:57:49;1.83;;;1.17;;
6531;SDS011;3299;42.004;24.868;2022-07-11T07:00:17;2.20;;;0.95;;
6531;SDS011;3299;42.004;24.868;2022-07-11T07:02:43;5.47;;;1.13;;
6531;SDS011;3299;42.004;24.868;2022-07-11T07:05:09;1.13;;;1.05;;
6531;SDS011;3299;42.004;24.868;2022-07-11T07:07:35;1.00;;;0.90;;
6531;SDS011;3299;42.004;24.868;2022-07-11T07:10:00;2.25;;;1.20;;
6531;SDS011;3299;42.004;24.868;2022-07-11T07:12:26;1.05;;;1.02;;
6531;SDS011;3299;42.004;24.868;2022-07-11T07:14:53;2.25;;;1.20;;
6531;SDS011;3299;42.004;24.868;2022-07-11T07:17:18;3.13;;;1.20;;
6531;SDS011;3299;42.004;24.868;2022-07-11T07:19:44;1.25;;;0.75;;
6531;SDS011;3299;42.004;24.868;2022-07-11T07:22:10;0.80;;;0.80;;
6531;SDS011;3299;42.004;24.868;2022-07-11T07:24:39;2.45;;;0.80;;
6531;SDS011;3299;42.004;24.868;2022-07-11T07:27:05;1.30;;;0.80;;
6531;SDS011;3299;42.004;24.868;2022-07-11T07:29:31;3.50;;;1.17;;
6531;SDS011;3299;42.004;24.868;2022-07-11T07:31:57;2.00;;;0.80;;
6531;SDS011;3299;42.004;24.868;2022-07-11T07:34:24;3.70;;;0.95;;
6531;SDS011;3299;42.004;24.868;2022-07-11T07:36:49;1.00;;;0.93;;
6531;SDS011;3299;42.004;24.868;2022-07-11T07:39:15;1.15;;;0.90;;
6531;SDS011;3299;42.004;24.868;2022-07-11T07:41:40;2.22;;;0.90;;
6531;SDS011;3299;42.004;24.868;2022-07-11T07:44:06;2.08;;;0.82;;
6531;SDS011;3299;42.004;24.868;2022-07-11T07:46:32;0.98;;;0.90;;
6531;SDS011;3299;42.004;24.868;2022-07-11T07:48:58;2.40;;;0.95;;
6531;SDS011;3299;42.004;24.868;2022-07-11T07:51:24;0.90;;;0.90;;
6531;SDS011;3299;42.004;24.868;2022-07-11T07:53:50;0.85;;;0.85;;
6531;SDS011;3299;42.004;24.868;2022-07-11T07:56:15;2.65;;;0.80;;
6531;SDS011;3299;42.004;24.868;2022-07-11T07:58:40;2.47;;;1.00;;
6531;SDS011;3299;42.004;24.868;2022-07-11T08:01:06;1.70;;;0.75;;
6531;SDS011;3299;42.004;24.868;2022-07-11T08:03:50;0.80;;;0.77;;
6531;SDS011;3299;42.004;24.868;2022-07-11T08:06:16;0.70;;;0.70;;
6531;SDS011;3299;42.004;24.868;2022-07-11T08:08:42;2.15;;;0.88;;
6531;SDS011;3299;42.004;24.868;2022-07-11T08:11:07;0.70;;;0.70;;
6531;SDS011;3299;42.004;24.868;2022-07-11T08:13:33;2.05;;;0.80;;
6531;SDS011;3299;42.004;24.868;2022-07-11T08:15:58;1.00;;;0.90;;
6531;SDS011;3299;42.004;24.868;2022-07-11T08:18:23;1.50;;;0.90;;
6531;SDS011;3299;42.004;24.868;2022-07-11T08:20:49;0.90;;;0.90;;
6531;SDS011;3299;42.004;24.868;2022-07-11T08:23:14;2.03;;;1.00;;
6531;SDS011;3299;42.004;24.868;2022-07-11T08:25:40;1.50;;;1.08;;
6531;SDS011;3299;42.004;24.868;2022-07-11T08:28:06;1.20;;;0.88;;
6531;SDS011;3299;42.004;24.868;2022-07-11T08:30:31;1.20;;;1.10;;
6531;SDS011;3299;42.004;24.868;2022-07-11T08:32:57;1.70;;;1.10;;
6531;SDS011;3299;42.004;24.868;2022-07-11T08:35:22;2.22;;;1.00;;
6531;SDS011;3299;42.004;24.868;2022-07-11T08:37:48;2.95;;;1.17;;
6531;SDS011;3299;42.004;24.868;2022-07-11T08:40:13;0.95;;;0.90;;
6531;SDS011;3299;42.004;24.868;2022-07-11T08:42:40;3.20;;;1.25;;
6531;SDS011;3299;42.004;24.868;2022-07-11T08:45:10;4.95;;;0.98;;
6531;SDS011;3299;42.004;24.868;2022-07-11T08:47:37;1.95;;;0.93;;
6531;SDS011;3299;42.004;24.868;2022-07-11T08:50:04;1.00;;;1.00;;
6531;SDS011;3299;42.004;24.868;2022-07-11T08:52:31;1.35;;;1.00;;
6531;SDS011;3299;42.004;24.868;2022-07-11T08:54:57;1.20;;;0.98;;
6531;SDS011;3299;42.004;24.868;2022-07-11T08:57:23;1.02;;;0.95;;
6531;SDS011;3299;42.004;24.868;2022-07-11T08:59:49;1.25;;;1.05;;
6531;SDS011;3299;42.004;24.868;2022-07-11T09:02:20;1.40;;;1.10;;
6531;SDS011;3299;42.004;24.868;2022-07-11T09:04:46;1.38;;;0.90;;
6531;SDS011;3299;42.004;24.868;2022-07-11T09:07:12;1.25;;;1.00;;
6531;SDS011;3299;42.004;24.868;2022-07-11T09:09:37;1.50;;;1.17;;
6531;SDS011;3299;42.004;24.868;2022-07-11T09:12:09;0.90;;;0.90;;
6531;SDS011;3299;42.004;24.868;2022-07-11T09:14:40;4.95;;;0.90;;
6531;SDS011;3299;42.004;24.868;2022-07-11T09:17:11;3.25;;;1.15;;
6531;SDS011;3299;42.004;24.868;2022-07-11T09:19:36;3.05;;;0.90;;
6531;SDS011;3299;42.004;24.868;2022-07-11T09:22:06;2.97;;;1.05;;
6531;SDS011;3299;42.004;24.868;2022-07-11T09:24:52;4.40;;;2.58;;
6531;SDS011;3299;42.004;24.868;2022-07-11T09:27:47;1.65;;;1.00;;
6531;SDS011;3299;42.004;24.868;2022-07-11T09:30:24;4.72;;;0.90;;
6531;SDS011;3299;42.004;24.868;2022-07-11T09:35:26;2.10;;;0.98;;
6531;SDS011;3299;42.004;24.868;2022-07-11T09:37:55;1.42;;;1.02;;
6531;SDS011;3299;42.004;24.868;2022-07-11T09:40:21;1.80;;;1.70;;
6531;SDS011;3299;42.004;24.868;2022-07-11T09:42:54;1.23;;;0.77;;
6531;SDS011;3299;42.004;24.868;2022-07-11T09:45:22;1.05;;;0.95;;
6531;SDS011;3299;42.004;24.868;2022-07-11T09:47:50;0.88;;;0.80;;
6531;SDS011;3299;42.004;24.868;2022-07-11T09:50:18;3.55;;;0.85;;
6531;SDS011;3299;42.004;24.868;2022-07-11T09:53:10;1.58;;;0.90;;
6531;SDS011;3299;42.004;24.868;2022-07-11T09:55:39;0.90;;;0.90;;
6531;SDS011;3299;42.004;24.868;2022-07-11T09:58:07;0.98;;;0.90;;
6531;SDS011;3299;42.004;24.868;2022-07-11T10:00:34;0.95;;;0.80;;
6531;SDS011;3299;42.004;24.868;2022-07-11T10:03:01;1.10;;;1.00;;
6531;SDS011;3299;42.004;24.868;2022-07-11T10:05:27;0.68;;;0.63;;
6531;SDS011;3299;42.004;24.868;2022-07-11T10:07:53;0.75;;;0.75;;
6531;SDS011;3299;42.004;24.868;2022-07-11T10:10:19;1.33;;;1.25;;
6531;SDS011;3299;42.004;24.868;2022-07-11T10:12:45;0.70;;;0.70;;
6531;SDS011;3299;42.004;24.868;2022-07-11T10:15:14;1.20;;;0.68;;
6531;SDS011;3299;42.004;24.868;2022-07-11T10:28:48;0.65;;;0.65;;
6531;SDS011;3299;42.004;24.868;2022-07-11T10:31:19;0.95;;;0.73;;
6531;SDS011;3299;42.004;24.868;2022-07-11T10:36:46;0.82;;;0.70;;
6531;SDS011;3299;42.004;24.868;2022-07-11T10:39:12;0.75;;;0.70;;
6531;SDS011;3299;42.004;24.868;2022-07-11T10:41:41;1.42;;;0.63;;
6531;SDS011;3299;42.004;24.868;2022-07-11T10:44:06;0.65;;;0.65;;
6531;SDS011;3299;42.004;24.868;2022-07-11T10:46:32;1.08;;;0.90;;
6531;SDS011;3299;42.004;24.868;2022-07-11T10:59:25;1.13;;;0.82;;
6531;SDS011;3299;42.004;24.868;2022-07-11T11:02:01;2.33;;;0.75;;
6531;SDS011;3299;42.004;24.868;2022-07-11T11:10:05;2.33;;;1.10;;
6531;SDS011;3299;42.004;24.868;2022-07-11T11:21:33;0.88;;;0.85;;
6531;SDS011;3299;42.004;24.868;2022-07-11T11:28:31;1.95;;;0.98;;
6531;SDS011;3299;42.004;24.868;2022-07-11T11:30:57;1.17;;;0.98;;
6531;SDS011;3299;42.004;24.868;2022-07-11T11:33:25;1.05;;;0.95;;
6531;SDS011;3299;42.004;24.868;2022-07-11T11:35:59;2.83;;;0.82;;
6531;SDS011;3299;42.004;24.868;2022-07-11T11:38:28;1.98;;;0.90;;
6531;SDS011;3299;42.004;24.868;2022-07-11T11:40:55;0.95;;;0.75;;
6531;SDS011;3299;42.004;24.868;2022-07-11T11:43:21;2.65;;;1.00;;
6531;SDS011;3299;42.004;24.868;2022-07-11T11:45:51;1.75;;;0.80;;
6531;SDS011;3299;42.004;24.868;2022-07-11T11:50:59;5.55;;;0.90;;
6531;SDS011;3299;42.004;24.868;2022-07-11T11:58:39;2.05;;;0.93;;
6531;SDS011;3299;42.004;24.868;2022-07-11T12:01:06;0.90;;;0.90;;
6531;SDS011;3299;42.004;24.868;2022-07-11T12:03:51;1.33;;;0.90;;
6531;SDS011;3299;42.004;24.868;2022-07-11T12:06:20;1.25;;;0.80;;
6531;SDS011;3299;42.004;24.868;2022-07-11T12:08:48;1.10;;;1.00;;
6531;SDS011;3299;42.004;24.868;2022-07-11T12:11:13;1.90;;;0.90;;
6531;SDS011;3299;42.004;24.868;2022-07-11T12:13:40;0.80;;;0.80;;
6531;SDS011;3299;42.004;24.868;2022-07-11T12:16:16;1.30;;;1.20;;
6531;SDS011;3299;42.004;24.868;2022-07-11T12:19:01;2.70;;;1.08;;
6531;SDS011;3299;42.004;24.868;2022-07-11T12:21:29;4.25;;;1.02;;
6531;SDS011;3299;42.004;24.868;2022-07-11T12:23:58;3.58;;;0.88;;
6531;SDS011;3299;42.004;24.868;2022-07-11T12:26:29;1.90;;;0.75;;
6531;SDS011;3299;42.004;24.868;2022-07-11T12:29:28;2.28;;;0.82;;
6531;SDS011;3299;42.004;24.868;2022-07-11T12:31:53;1.25;;;0.70;;
6531;SDS011;3299;42.004;24.868;2022-07-11T12:34:22;0.88;;;0.88;;
6531;SDS011;3299;42.004;24.868;2022-07-11T12:36:50;0.70;;;0.70;;
6531;SDS011;3299;42.004;24.868;2022-07-11T12:39:23;1.20;;;0.90;;
6531;SDS011;3299;42.004;24.868;2022-07-11T12:41:53;3.92;;;0.70;;
6531;SDS011;3299;42.004;24.868;2022-07-11T12:44:23;2.50;;;0.88;;
6531;SDS011;3299;42.004;24.868;2022-07-11T12:47:07;1.52;;;0.55;;
6531;SDS011;3299;42.004;24.868;2022-07-11T12:49:33;1.13;;;0.70;;
6531;SDS011;3299;42.004;24.868;2022-07-11T12:51:58;3.33;;;0.88;;
6531;SDS011;3299;42.004;24.868;2022-07-11T12:54:29;0.60;;;0.60;;
6531;SDS011;3299;42.004;24.868;2022-07-11T12:56:56;1.23;;;0.80;;
6531;SDS011;3299;42.004;24.868;2022-07-11T12:59:23;2.22;;;0.65;;
6531;SDS011;3299;42.004;24.868;2022-07-11T13:01:57;3.40;;;0.63;;
6531;SDS011;3299;42.004;24.868;2022-07-11T13:10:09;2.65;;;0.98;;
6531;SDS011;3299;42.004;24.868;2022-07-11T13:12:39;4.43;;;1.15;;
6531;SDS011;3299;42.004;24.868;2022-07-11T13:15:06;1.58;;;0.63;;
6531;SDS011;3299;42.004;24.868;2022-07-11T13:20:04;5.07;;;1.20;;
6531;SDS011;3299;42.004;24.868;2022-07-11T13:22:41;0.93;;;0.52;;
6531;SDS011;3299;42.004;24.868;2022-07-11T13:25:08;3.35;;;0.80;;
6531;SDS011;3299;42.004;24.868;2022-07-11T13:27:36;1.00;;;0.90;;
6531;SDS011;3299;42.004;24.868;2022-07-11T13:30:02;1.52;;;0.90;;
6531;SDS011;3299;42.004;24.868;2022-07-11T13:32:35;1.05;;;0.70;;
6531;SDS011;3299;42.004;24.868;2022-07-11T13:35:01;1.25;;;0.82;;
6531;SDS011;3299;42.004;24.868;2022-07-11T13:37:27;0.70;;;0.60;;
6531;SDS011;3299;42.004;24.868;2022-07-11T13:39:53;3.85;;;0.52;;
6531;SDS011;3299;42.004;24.868;2022-07-11T13:42:18;0.85;;;0.70;;
6531;SDS011;3299;42.004;24.868;2022-07-11T13:44:44;4.55;;;1.20;;
6531;SDS011;3299;42.004;24.868;2022-07-11T13:47:09;10.88;;;1.13;;
6531;SDS011;3299;42.004;24.868;2022-07-11T13:49:34;1.73;;;0.70;;
6531;SDS011;3299;42.004;24.868;2022-07-11T13:52:00;0.90;;;0.50;;
6531;SDS011;3299;42.004;24.868;2022-07-11T13:54:25;1.02;;;0.60;;
6531;SDS011;3299;42.004;24.868;2022-07-11T13:56:51;3.90;;;0.80;;
6531;SDS011;3299;42.004;24.868;2022-07-11T13:59:16;2.45;;;0.63;;
6531;SDS011;3299;42.004;24.868;2022-07-11T14:01:42;4.38;;;1.10;;
6531;SDS011;3299;42.004;24.868;2022-07-11T14:04:07;1.95;;;0.70;;
6531;SDS011;3299;42.004;24.868;2022-07-11T14:06:32;1.10;;;0.40;;
6531;SDS011;3299;42.004;24.868;2022-07-11T14:09:00;1.05;;;0.60;;
6531;SDS011;3299;42.004;24.868;2022-07-11T14:11:26;0.80;;;0.60;;
6531;SDS011;3299;42.004;24.868;2022-07-11T14:13:52;1.98;;;0.77;;
6531;SDS011;3299;42.004;24.868;2022-07-11T14:16:17;1.42;;;0.60;;
6531;SDS011;3299;42.004;24.868;2022-07-11T14:18:44;1.65;;;0.68;;
6531;SDS011;3299;42.004;24.868;2022-07-11T14:21:10;1.08;;;0.63;;
6531;SDS011;3299;42.004;24.868;2022-07-11T14:23:35;1.75;;;0.60;;
6531;SDS011;3299;42.004;24.868;2022-07-11T14:26:01;1.45;;;0.60;;
6531;SDS011;3299;42.004;24.868;2022-07-11T14:28:30;5.75;;;0.80;;
6531;SDS011;3299;42.004;24.868;2022-07-11T14:30:56;0.68;;;0.57;;
6531;SDS011;3299;42.004;24.868;2022-07-11T14:33:23;1.77;;;0.77;;
6531;SDS011;3299;42.004;24.868;2022-07-11T14:35:49;4.30;;;0.70;;
6531;SDS011;3299;42.004;24.868;2022-07-11T14:38:14;5.45;;;0.60;;
6531;SDS011;3299;42.004;24.868;2022-07-11T14:40:40;1.92;;;0.90;;
6531;SDS011;3299;42.004;24.868;2022-07-11T14:43:05;1.77;;;0.60;;
6531;SDS011;3299;42.004;24.868;2022-07-11T14:45:31;0.57;;;0.57;;
6531;SDS011;3299;42.004;24.868;2022-07-11T14:47:56;1.25;;;0.85;;
6531;SDS011;3299;42.004;24.868;2022-07-11T14:50:22;1.10;;;0.50;;
6531;SDS011;3299;42.004;24.868;2022-07-11T14:52:47;2.28;;;0.50;;
6531;SDS011;3299;42.004;24.868;2022-07-11T14:55:13;1.38;;;0.60;;
6531;SDS011;3299;42.004;24.868;2022-07-11T14:57:39;1.65;;;0.70;;
6531;SDS011;3299;42.004;24.868;2022-07-11T15:00:04;1.33;;;0.60;;
6531;SDS011;3299;42.004;24.868;2022-07-11T15:02:31;1.48;;;0.50;;
6531;SDS011;3299;42.004;24.868;2022-07-11T15:05:15;1.45;;;0.50;;
6531;SDS011;3299;42.004;24.868;2022-07-11T15:07:41;1.85;;;0.57;;
6531;SDS011;3299;42.004;24.868;2022-07-11T15:10:25;5.55;;;0.80;;
6531;SDS011;3299;42.004;24.868;2022-07-11T15:13:09;1.55;;;0.70;;
6531;SDS011;3299;42.004;24.868;2022-07-11T15:15:34;0.77;;;0.60;;
6531;SDS011;3299;42.004;24.868;2022-07-11T15:17:59;1.25;;;0.60;;
6531;SDS011;3299;42.004;24.868;2022-07-11T15:20:25;0.68;;;0.68;;
6531;SDS011;3299;42.004;24.868;2022-07-11T15:22:50;1.63;;;0.60;;
6531;SDS011;3299;42.004;24.868;2022-07-11T15:25:16;1.30;;;0.60;;
6531;SDS011;3299;42.004;24.868;2022-07-11T15:27:41;1.27;;;0.70;;
6531;SDS011;3299;42.004;24.868;2022-07-11T15:30:07;0.60;;;0.60;;
6531;SDS011;3299;42.004;24.868;2022-07-11T15:32:33;1.20;;;0.60;;
6531;SDS011;3299;42.004;24.868;2022-07-11T15:35:00;4.95;;;0.80;;
6531;SDS011;3299;42.004;24.868;2022-07-11T15:37:26;0.80;;;0.80;;
6531;SDS011;3299;42.004;24.868;2022-07-11T15:39:51;1.17;;;0.73;;
6531;SDS011;3299;42.004;24.868;2022-07-11T15:42:16;1.70;;;0.60;;
6531;SDS011;3299;42.004;24.868;2022-07-11T15:44:42;2.30;;;0.65;;
6531;SDS011;3299;42.004;24.868;2022-07-11T15:47:07;2.33;;;1.10;;
6531;SDS011;3299;42.004;24.868;2022-07-11T15:49:34;6.10;;;1.05;;
6531;SDS011;3299;42.004;24.868;2022-07-11T15:51:59;2.35;;;0.80;;
6531;SDS011;3299;42.004;24.868;2022-07-11T15:54:24;1.40;;;1.30;;
6531;SDS011;3299;42.004;24.868;2022-07-11T15:56:50;2.30;;;0.75;;
6531;SDS011;3299;42.004;24.868;2022-07-11T15:59:15;1.95;;;0.60;;
6531;SDS011;3299;42.004;24.868;2022-07-11T16:01:41;2.15;;;0.85;;